createdAt,value
2019-06-10T00:01:02.737Z,76
2019-06-10T00:06:31.061Z,76
2019-06-10T00:12:01.484Z,76
2019-06-10T00:17:28.263Z,76
2019-06-10T00:22:59.392Z,77
2019-06-10T00:28:28.361Z,77
2019-06-10T00:33:58.613Z,77
2019-06-10T00:39:27.807Z,77
2019-06-10T00:44:56.601Z,77
2019-06-10T00:50:26.744Z,77
2019-06-10T00:55:56.826Z,78
2019-06-10T01:01:25.967Z,78
2019-06-10T01:12:24.141Z,79
2019-06-10T01:17:53.272Z,79
2019-06-10T01:23:23.375Z,80
2019-06-10T01:28:53.526Z,80
2019-06-10T01:34:23.561Z,81
2019-06-10T01:39:52.709Z,81
2019-06-10T01:45:22.718Z,81
2019-06-10T01:50:51.805Z,81
2019-06-10T01:56:21.474Z,81
2019-06-10T02:01:51.732Z,81
2019-06-10T02:07:22.679Z,81
2019-06-10T02:12:50.812Z,82
2019-06-10T02:23:51.588Z,82
2019-06-10T02:29:21.330Z,82
2019-06-10T02:40:21.464Z,82
2019-06-10T02:45:46.689Z,82
2019-06-10T02:51:27.613Z,82
2019-06-10T02:56:46.859Z,82
2019-06-10T03:02:18.231Z,82
2019-06-10T03:07:47.051Z,82
2019-06-10T03:13:16.240Z,82
2019-06-10T03:18:46.240Z,82
2019-06-10T03:24:15.343Z,82
2019-06-10T03:29:44.532Z,83
2019-06-10T03:35:14.476Z,82
2019-06-10T03:40:44.584Z,82
2019-06-10T03:46:13.854Z,82
2019-06-10T03:51:43.803Z,83
2019-06-10T03:57:13.036Z,83
2019-06-10T04:02:43.232Z,83
2019-06-10T04:08:13.079Z,84
2019-06-10T04:13:43.303Z,84
2019-06-10T04:19:13.362Z,85
2019-06-10T04:24:43.161Z,85
2019-06-10T04:30:12.443Z,86
2019-06-10T04:35:42.658Z,86
2019-06-10T04:41:09.488Z,86
2019-06-10T04:46:38.693Z,86
2019-06-10T04:52:08.777Z,85
2019-06-10T04:57:37.750Z,85
2019-06-10T05:03:07.768Z,85
2019-06-10T05:08:36.810Z,85
2019-06-10T05:14:06.906Z,85
2019-06-10T05:19:36.944Z,85
2019-06-10T05:25:06.123Z,85
2019-06-10T05:30:36.158Z,84
2019-06-10T05:36:05.139Z,84
2019-06-10T05:41:35.157Z,84
2019-06-10T05:47:06.000Z,84
2019-06-10T05:52:35.132Z,83
2019-06-10T05:58:03.539Z,84
2019-06-10T06:03:36.841Z,83
2019-06-10T06:09:02.780Z,83
2019-06-10T06:14:34.652Z,83
2019-06-10T06:20:02.940Z,82
2019-06-10T06:25:38.867Z,83
2019-06-10T06:31:03.286Z,83
2019-06-10T06:36:33.414Z,83
2019-06-10T06:42:02.218Z,83
2019-06-10T06:47:33.795Z,84
2019-06-10T06:53:19.271Z,84
2019-06-10T06:58:33.272Z,85
2019-06-10T07:04:02.412Z,87
2019-06-10T07:09:30.213Z,88
2019-06-10T07:14:57.980Z,88
2019-06-10T07:20:28.089Z,89
2019-06-10T07:25:58.163Z,89
2019-06-10T07:31:28.088Z,89
2019-06-10T07:42:25.403Z,89
2019-06-10T07:47:55.414Z,89
2019-06-10T07:53:24.462Z,90
2019-06-10T07:58:54.509Z,89
2019-06-10T08:04:24.524Z,89
2019-06-10T08:09:53.593Z,89
2019-06-10T08:15:23.655Z,90
2019-06-10T08:20:53.638Z,89
2019-06-10T08:26:23.220Z,90
2019-06-10T08:31:53.143Z,90
2019-06-10T08:37:23.350Z,90
2019-06-10T08:42:49.818Z,90
2019-06-10T08:48:22.545Z,90
2019-06-10T08:53:50.139Z,91
2019-06-10T08:59:19.973Z,90
2019-06-10T09:04:51.148Z,90
2019-06-10T09:10:19.086Z,91
2019-06-10T09:16:05.693Z,90
2019-06-10T09:21:18.184Z,90
2019-06-10T09:26:51.044Z,91
2019-06-10T09:32:17.283Z,91
2019-06-10T09:37:49.818Z,90
2019-06-10T09:43:17.386Z,91
2019-06-10T09:48:50.112Z,91
2019-06-10T09:54:16.513Z,90
2019-06-10T09:59:48.315Z,91
2019-06-10T10:05:14.663Z,91
2019-06-10T10:10:47.873Z,90
2019-06-10T10:16:13.795Z,89
2019-06-10T10:21:46.738Z,90
2019-06-10T10:27:13.370Z,89
2019-06-10T10:32:44.251Z,89
2019-06-10T10:38:13.400Z,89
2019-06-10T10:43:43.494Z,89
2019-06-10T10:49:10.164Z,90
2019-06-10T10:54:43.123Z,89
2019-06-10T11:00:08.282Z,89
2019-06-10T11:05:38.352Z,88
2019-06-10T11:11:07.539Z,87
2019-06-10T11:16:37.607Z,87
2019-06-10T11:22:06.678Z,88
2019-06-10T11:27:35.844Z,88
2019-06-10T11:33:05.948Z,87
2019-06-10T11:38:35.129Z,88
2019-06-10T11:44:04.350Z,87
2019-06-10T11:49:33.412Z,85
2019-06-10T11:55:11.495Z,86
2019-06-10T12:00:33.033Z,86
2019-06-10T12:06:05.026Z,85
2019-06-10T12:11:30.101Z,85
2019-06-10T12:17:20.976Z,85
2019-06-10T12:22:29.231Z,85
2019-06-10T12:28:03.721Z,85
2019-06-10T12:33:28.533Z,85
2019-06-10T12:39:04.017Z,85
2019-06-10T12:44:27.693Z,84
2019-06-10T12:49:59.049Z,84
2019-06-10T12:55:39.091Z,84
2019-06-10T13:06:28.199Z,83
2019-06-10T13:12:02.395Z,81
2019-06-10T13:17:26.486Z,83
2019-06-10T13:22:58.217Z,82
2019-06-10T13:28:24.816Z,82
2019-06-10T13:33:56.606Z,83
2019-06-10T13:39:26.924Z,82
2019-06-10T13:44:54.285Z,82
2019-06-10T13:50:24.863Z,82
2019-06-10T13:56:08.528Z,82
2019-06-10T14:01:22.325Z,83
2019-06-10T14:06:56.675Z,83
2019-06-10T14:12:20.264Z,83
2019-06-10T14:17:52.577Z,83
2019-06-10T14:23:21.803Z,83
2019-06-10T14:28:52.410Z,84
2019-06-10T14:34:18.997Z,84
2019-06-10T14:39:49.186Z,85
2019-06-10T14:45:19.382Z,86
2019-06-10T14:50:49.524Z,85
2019-06-10T14:56:19.733Z,85
2019-06-10T15:01:48.095Z,85
2019-06-10T15:07:17.249Z,86
2019-06-10T15:12:47.382Z,86
2019-06-10T15:18:18.187Z,86
2019-06-10T15:23:46.751Z,86
2019-06-10T15:29:17.510Z,87
2019-06-10T15:34:47.162Z,87
2019-06-10T15:40:18.269Z,87
2019-06-10T15:45:47.728Z,87
2019-06-10T15:51:19.641Z,86
2019-06-10T15:56:52.128Z,86
2019-06-10T16:02:19.155Z,86
2019-06-10T16:07:47.430Z,87
2019-06-10T16:13:18.583Z,87
2019-06-10T16:18:46.922Z,87
2019-06-10T16:24:17.167Z,87
2019-06-10T16:29:45.183Z,86
2019-06-10T16:35:14.990Z,86
2019-06-10T16:40:44.617Z,86
2019-06-10T16:46:16.017Z,86
2019-06-10T16:51:45.095Z,86
2019-06-10T16:57:14.308Z,85
2019-06-10T17:02:44.654Z,85
2019-06-10T17:08:14.796Z,85
2019-06-10T17:13:44.075Z,85
2019-06-10T17:19:14.336Z,85
2019-06-10T17:24:45.213Z,84
2019-06-10T17:30:13.176Z,84
2019-06-10T17:35:43.161Z,83
2019-06-10T17:41:13.222Z,82
2019-06-10T17:46:42.785Z,82
2019-06-10T17:52:12.915Z,82
2019-06-10T17:57:42.932Z,82
2019-06-10T18:03:13.129Z,82
2019-06-10T18:08:41.720Z,81
2019-06-10T18:14:12.271Z,82
2019-06-10T18:19:43.251Z,82
2019-06-10T18:25:12.299Z,82
2019-06-10T18:30:43.237Z,82
2019-06-10T18:36:12.031Z,82
2019-06-10T18:41:39.881Z,82
2019-06-10T18:47:08.394Z,83
2019-06-10T18:52:38.660Z,82
2019-06-10T18:58:08.784Z,83
2019-06-10T19:03:39.596Z,83
2019-06-10T19:09:09.316Z,82
2019-06-10T19:14:38.660Z,82
2019-06-10T19:20:08.565Z,82
2019-06-10T19:25:38.854Z,81
2019-06-10T19:31:07.076Z,82
2019-06-10T19:36:36.145Z,81
2019-06-10T19:42:09.186Z,81
2019-06-10T19:47:37.916Z,81
2019-06-10T19:58:36.189Z,81
2019-06-10T20:04:03.972Z,82
2019-06-10T20:09:34.499Z,82
2019-06-10T20:15:03.339Z,83
2019-06-10T20:20:33.561Z,83
2019-06-10T20:26:03.547Z,83
2019-06-10T20:31:33.772Z,84
2019-06-10T20:37:04.647Z,84
2019-06-10T20:42:32.326Z,84
2019-06-10T20:48:02.801Z,85
2019-06-10T20:53:33.520Z,85
2019-06-10T20:59:02.745Z,85
2019-06-10T21:04:32.266Z,85
2019-06-10T21:10:02.728Z,84
2019-06-10T21:15:33.188Z,84
2019-06-10T21:20:59.969Z,84
2019-06-10T21:26:32.329Z,84
2019-06-10T21:32:00.255Z,84
2019-06-10T21:37:31.960Z,84
2019-06-10T21:42:59.782Z,84
2019-06-10T21:48:28.822Z,84
2019-06-10T21:53:57.736Z,84
2019-06-10T21:59:26.913Z,85
2019-06-10T22:04:57.019Z,85
2019-06-10T22:10:26.163Z,86
2019-06-10T22:15:57.124Z,86
2019-06-10T22:21:26.475Z,87
2019-06-10T22:26:56.462Z,87
2019-06-10T22:32:26.768Z,87
2019-06-10T22:37:56.632Z,88
2019-06-10T22:43:25.750Z,89
2019-06-10T22:48:55.212Z,89
2019-06-10T22:54:24.032Z,90
2019-06-10T22:59:55.006Z,90
2019-06-10T23:05:23.165Z,91
2019-06-10T23:10:53.375Z,91
2019-06-10T23:16:22.221Z,92
2019-06-10T23:21:49.259Z,91
2019-06-10T23:27:19.307Z,91
2019-06-10T23:32:48.421Z,91
2019-06-10T23:38:18.440Z,91
2019-06-10T23:43:48.456Z,91
2019-06-10T23:49:18.579Z,90
2019-06-10T23:54:48.587Z,90
